Time;durP1;ratioP1;P1;durP2;ratioP2;P2;SDS_P1;SDS_P2;PMS_P1;PMS_P2;Temp;Humidity;BMP_temperature;BMP_pressure;BME280_temperature;BME280_humidity;BME280_pressure;Samples;Min_cycle;Max_cycle;Signal;HPM_P1;HPM_P2
2023/05/31 00:00:28;;;;;;;;;19.00;19.00;;;;;17.62;61.47;101379.72;6229707;22;45275;-86
2023/05/31 00:02:54;;;;;;;;;20.00;20.00;;;;;17.65;62.41;101383.25;6257725;22;44898;-85
2023/05/31 00:05:19;;;;;;;;;23.67;19.33;;;;;17.63;62.10;101365.34;6230035;22;48537;-86
2023/05/31 00:07:45;;;;;;;;;22.33;19.67;;;;;17.57;62.90;101366.25;6229401;22;45214;-85
2023/05/31 00:10:10;;;;;;;;;19.67;19.67;;;;;17.56;62.25;101375.25;6254413;22;45173;-86
2023/05/31 00:12:39;;;;;;;;;20.00;17.00;;;;;17.59;61.55;101372.53;6229754;22;45133;-85
2023/05/31 00:15:05;;;;;;;;;21.33;20.00;;;;;17.46;61.43;101368.13;6230073;22;45579;-85
2023/05/31 00:17:30;;;;;;;;;18.67;16.00;;;;;17.43;63.98;101360.97;6255807;22;45366;-86
2023/05/31 00:19:56;;;;;;;;;15.00;12.67;;;;;17.45;62.45;101374.38;6256586;22;44857;-86
2023/05/31 00:22:21;;;;;;;;;18.67;14.67;;;;;17.39;62.07;101373.53;6228576;22;45361;-86
2023/05/31 00:24:50;;;;;;;;;26.67;21.67;;;;;17.30;62.17;101362.78;6227905;22;45615;-86
2023/05/31 00:27:19;;;;;;;;;17.33;17.00;;;;;17.40;62.85;101372.59;6228068;22;45328;-86
2023/05/31 00:29:47;;;;;;;;;23.67;21.00;;;;;17.37;62.79;101378.00;6256947;22;45338;-86
2023/05/31 00:32:12;;;;;;;;;22.00;21.67;;;;;17.25;63.48;101364.63;6227488;22;44791;-86
2023/05/31 00:34:37;;;;;;;;;24.67;21.33;;;;;17.31;62.18;101372.66;6253878;22;46847;-85
2023/05/31 00:37:03;;;;;;;;;25.33;23.00;;;;;17.31;63.23;101375.34;6256623;22;45303;-85
2023/05/31 00:39:30;;;;;;;;;17.67;13.67;;;;;17.31;63.65;101375.34;6256924;22;45351;-85
2023/05/31 00:41:56;;;;;;;;;18.67;18.67;;;;;17.17;65.49;101371.81;6256512;22;45354;-85
2023/05/31 00:44:21;;;;;;;;;19.00;19.00;;;;;17.15;64.60;101370.94;6256012;22;45672;-86
2023/05/31 00:46:47;;;;;;;;;23.33;20.00;;;;;17.07;63.88;101348.56;6229880;22;45355;-86
2023/05/31 00:49:13;;;;;;;;;19.67;19.67;;;;;17.16;64.82;101353.88;6255879;22;45256;-86
2023/05/31 00:51:42;;;;;;;;;19.67;19.33;;;;;17.26;63.36;101361.00;6257410;22;45347;-85
2023/05/31 00:54:07;;;;;;;;;23.33;20.67;;;;;17.15;63.52;101362.88;6230387;22;45722;-85
2023/05/31 00:56:33;;;;;;;;;22.67;21.00;;;;;17.08;65.76;101353.03;6259374;22;45347;-86
2023/05/31 00:59:02;;;;;;;;;20.33;19.33;;;;;17.08;64.47;101347.63;6262206;22;45362;-86
2023/05/31 01:01:32;;;;;;;;;19.67;19.67;;;;;17.03;64.42;101342.28;6289973;22;45167;-86
2023/05/31 01:03:59;;;;;;;;;25.00;23.33;;;;;17.01;65.17;101338.72;6287061;22;45085;-86
2023/05/31 01:06:25;;;;;;;;;21.00;18.33;;;;;17.05;63.97;101347.63;6259893;22;45359;-87
2023/05/31 01:08:54;;;;;;;;;21.67;21.33;;;;;17.09;65.66;101346.75;6234807;22;45347;-85
2023/05/31 01:11:32;;;;;;;;;23.67;19.67;;;;;17.03;64.21;101331.53;6285356;22;45050;-86
2023/05/31 01:14:09;;;;;;;;;20.00;20.00;;;;;17.08;65.04;101335.09;6287455;22;45312;-86
2023/05/31 01:16:45;;;;;;;;;23.00;22.00;;;;;16.99;64.46;101332.44;6260201;22;45467;-85
2023/05/31 01:19:20;;;;;;;;;23.00;21.00;;;;;16.96;65.50;101335.13;6259714;22;45429;-86
2023/05/31 01:22:00;;;;;;;;;23.00;22.00;;;;;16.97;65.82;101327.06;6258860;22;45216;-86
2023/05/31 01:24:53;;;;;;;;;22.00;20.00;;;;;16.89;68.33;101328.88;6259373;22;46874;-86
2023/05/31 01:27:19;;;;;;;;;23.33;20.00;;;;;16.77;66.89;101326.19;6283444;22;44868;-86
2023/05/31 01:29:46;;;;;;;;;27.67;22.67;;;;;16.76;66.17;101332.44;6261355;22;45392;-86
2023/05/31 01:32:14;;;;;;;;;25.00;21.00;;;;;16.73;67.13;101322.63;6261802;22;45284;-86
2023/05/31 01:34:46;;;;;;;;;26.33;24.67;;;;;16.68;67.03;101318.16;6260339;22;46941;-86
2023/05/31 01:37:11;;;;;;;;;20.67;18.67;;;;;16.70;66.74;101321.72;6260818;22;45237;-86
2023/05/31 01:39:37;;;;;;;;;26.00;23.33;;;;;16.71;66.88;101319.03;6259556;22;45391;-86
2023/05/31 01:42:04;;;;;;;;;22.33;20.33;;;;;16.70;66.49;101321.72;6260333;22;45379;-86
2023/05/31 01:44:32;;;;;;;;;22.33;20.67;;;;;16.73;66.44;101311.88;6288485;22;45344;-85
2023/05/31 01:46:58;;;;;;;;;23.67;22.00;;;;;16.76;68.19;101319.03;6288435;22;45373;-86
2023/05/31 01:49:25;;;;;;;;;21.67;20.67;;;;;16.69;66.90;101309.22;6288657;22;45724;-86
2023/05/31 01:51:51;;;;;;;;;23.33;23.33;;;;;16.70;67.20;101319.03;6261225;22;45496;-86
2023/05/31 01:54:17;;;;;;;;;27.67;23.00;;;;;16.72;66.85;101314.56;6285612;22;46034;-85
2023/05/31 01:56:45;;;;;;;;;26.00;23.33;;;;;16.72;67.01;101314.56;6229784;22;45234;-86
2023/05/31 01:59:12;;;;;;;;;24.67;24.00;;;;;16.68;67.40;101310.97;6257918;22;45250;-86
2023/05/31 02:01:40;;;;;;;;;24.33;20.33;;;;;16.76;68.16;101316.34;6258103;22;45613;-85
2023/05/31 02:04:06;;;;;;;;;28.00;23.33;;;;;16.65;66.75;101320.84;6230095;22;47819;-86
2023/05/31 02:06:36;;;;;;;;;26.67;23.67;;;;;16.72;66.89;101307.38;6230553;22;45420;-86
2023/05/31 02:09:03;;;;;;;;;22.67;20.67;;;;;16.62;66.98;101296.66;6257825;22;44835;-86
2023/05/31 02:11:28;;;;;;;;;24.67;21.33;;;;;16.62;66.78;101311.00;6230651;22;45578;-85
2023/05/31 02:13:57;;;;;;;;;26.67;23.67;;;;;16.58;66.99;101291.31;6227974;22;47311;-86
2023/05/31 02:16:23;;;;;;;;;27.33;21.67;;;;;16.62;66.72;101308.31;6255394;22;44705;-86
2023/05/31 02:18:51;;;;;;;;;24.00;21.33;;;;;16.48;67.93;101286.88;6228569;22;45312;-86
2023/05/31 02:21:16;;;;;;;;;25.67;23.00;;;;;16.57;67.34;101300.25;6229884;22;45319;-86
2023/05/31 02:23:42;;;;;;;;;24.67;20.67;;;;;16.59;69.23;101303.84;6228550;22;47229;-86
2023/05/31 02:26:14;;;;;;;;;22.33;22.33;;;;;16.65;67.05;101304.75;6227941;22;45183;-85
2023/05/31 02:28:40;;;;;;;;;19.00;18.00;;;;;16.56;67.04;101308.31;6227070;22;45263;-85
2023/05/31 02:31:05;;;;;;;;;20.33;17.33;;;;;16.50;66.91;101301.19;6255023;22;45208;-86
2023/05/31 02:36:53;;;;;;;;;19.33;19.33;;;;;16.53;66.98;101294.91;6254753;22;44811;-85
2023/05/31 02:39:18;;;;;;;;;23.00;20.00;;;;;16.49;67.92;101299.38;6229822;22;45432;-86
2023/05/31 02:41:44;;;;;;;;;24.00;21.67;;;;;16.51;67.29;101308.31;6228025;22;45402;-86
2023/05/31 02:44:10;;;;;;;;;27.00;25.00;;;;;16.50;67.65;101309.25;6255253;22;45416;-86
2023/05/31 02:46:38;;;;;;;;;17.33;16.67;;;;;16.40;67.43;101294.00;6254957;22;45347;-86
2023/05/31 02:49:04;;;;;;;;;23.67;21.33;;;;;16.33;67.40;101285.06;6229092;22;45212;-85
2023/05/31 02:51:32;;;;;;;;;23.00;22.67;;;;;16.51;66.96;101305.66;6255949;22;44901;-86
2023/05/31 02:54:02;;;;;;;;;23.00;20.67;;;;;16.46;67.07;101303.84;6256498;22;45369;-85
2023/05/31 02:56:27;;;;;;;;;21.67;21.67;;;;;16.46;67.44;101302.09;6258029;22;45608;-86
2023/05/31 02:58:53;;;;;;;;;22.67;20.67;;;;;16.47;68.58;101298.50;6261345;22;45225;-85
2023/05/31 03:01:18;;;;;;;;;23.00;20.33;;;;;16.45;68.18;101311.03;6261028;22;45368;-86
2023/05/31 03:03:44;;;;;;;;;24.67;24.33;;;;;16.33;68.89;101297.63;6261757;22;46388;-85
2023/05/31 03:06:12;;;;;;;;;26.33;24.67;;;;;16.42;67.48;101294.94;6289027;22;44689;-85
2023/05/31 03:08:37;;;;;;;;;22.33;21.67;;;;;16.41;68.17;101309.25;6261322;22;45344;-85
2023/05/31 03:11:03;;;;;;;;;29.00;24.00;;;;;16.33;67.96;101290.44;6260629;22;45516;-85
2023/05/31 03:13:28;;;;;;;;;22.00;21.00;;;;;16.37;67.96;101286.88;6288842;22;46602;-87
2023/05/31 03:15:57;;;;;;;;;22.00;19.67;;;;;16.42;67.86;101289.56;6261338;22;44772;-86
2023/05/31 03:18:22;;;;;;;;;28.00;24.33;;;;;16.32;68.01;101277.94;6260495;22;45109;-86
2023/05/31 03:20:48;;;;;;;;;22.00;21.33;;;;;16.37;67.79;101292.22;6259861;22;44886;-86
2023/05/31 03:23:13;;;;;;;;;21.33;21.33;;;;;16.32;68.44;101277.03;6261090;22;47066;-86
2023/05/31 03:25:40;;;;;;;;;28.67;24.67;;;;;16.34;68.27;101280.59;6290775;22;45349;-85
2023/05/31 03:28:05;;;;;;;;;27.67;24.33;;;;;16.33;68.15;101284.19;6262303;22;45483;-85
2023/05/31 03:30:31;;;;;;;;;25.67;25.67;;;;;16.32;68.07;101293.13;6261680;22;45331;-85
2023/05/31 03:32:57;;;;;;;;;32.00;28.67;;;;;16.19;68.58;101282.41;6289255;22;45370;-87
2023/05/31 03:35:22;;;;;;;;;27.00;25.67;;;;;16.26;68.21;101293.13;6287128;22;45816;-85
2023/05/31 03:37:52;;;;;;;;;16.33;16.33;;;;;16.27;68.66;101284.19;6260137;22;45414;-86
2023/05/31 03:40:18;;;;;;;;;28.67;26.67;;;;;16.24;68.36;101297.59;6288742;22;45140;-85
2023/05/31 03:42:43;;;;;;;;;26.67;25.00;;;;;16.19;68.18;101290.44;6261186;22;46781;-85
2023/05/31 03:45:09;;;;;;;;;26.00;23.33;;;;;16.17;68.89;101286.88;6262750;22;45152;-86
2023/05/31 03:47:35;;;;;;;;;25.67;19.67;;;;;16.17;69.20;101289.56;6262137;22;45185;-87
2023/05/31 03:50:01;;;;;;;;;22.33;21.67;;;;;16.12;68.79;101286.00;6262248;22;45655;-85
2023/05/31 03:52:27;;;;;;;;;24.67;22.33;;;;;16.12;69.09;101296.72;6261328;22;47179;-86
2023/05/31 03:54:53;;;;;;;;;28.67;25.33;;;;;16.09;69.06;101291.34;6283076;22;44948;-86
2023/05/31 03:57:18;;;;;;;;;25.33;24.00;;;;;16.12;69.05;101303.91;6231783;22;44878;-85
2023/05/31 03:59:44;;;;;;;;;24.67;24.67;;;;;16.14;69.51;101311.03;6259003;22;45302;-86
2023/05/31 04:02:15;;;;;;;;;26.33;21.67;;;;;16.25;69.00;101310.16;6230143;22;46595;-86
2023/05/31 04:04:40;;;;;;;;;24.67;22.33;;;;;16.15;69.26;101306.56;6229727;22;45423;-85
2023/05/31 04:07:06;;;;;;;;;28.33;25.00;;;;;16.06;69.11;101302.09;6229426;22;44808;-87
2023/05/31 04:09:31;;;;;;;;;27.33;22.33;;;;;16.11;69.12;101305.66;6255372;22;45384;-86
2023/05/31 04:11:57;;;;;;;;;26.33;25.33;;;;;16.09;69.31;101301.19;6227554;22;47041;-86
2023/05/31 04:14:23;;;;;;;;;23.00;21.00;;;;;16.06;69.07;101302.09;6251964;22;45373;-86
2023/05/31 04:16:48;;;;;;;;;26.67;24.67;;;;;16.04;69.54;101298.53;6229199;22;45272;-86
2023/05/31 04:19:14;;;;;;;;;23.33;21.33;;;;;16.13;69.66;101319.97;6256839;22;45330;-86
2023/05/31 04:21:40;;;;;;;;;23.00;23.00;;;;;16.06;69.33;101312.84;6228526;22;47193;-85
2023/05/31 04:24:05;;;;;;;;;27.00;23.00;;;;;16.12;69.30;101322.69;6228780;22;45166;-86
2023/05/31 04:26:32;;;;;;;;;28.67;22.67;;;;;16.09;69.74;101315.50;6229407;22;45371;-86
2023/05/31 04:28:58;;;;;;;;;28.33;25.33;;;;;16.04;70.19;101313.69;6230362;22;45115;-86
2023/05/31 04:31:24;;;;;;;;;24.67;24.33;;;;;16.04;69.91;101308.34;6229249;22;45235;-85
2023/05/31 04:33:53;;;;;;;;;24.67;23.33;;;;;16.00;70.02;101307.47;6257620;22;45353;-85
2023/05/31 04:36:20;;;;;;;;;28.67;23.00;;;;;16.11;70.07;101313.72;6231604;22;45334;-85
2023/05/31 04:38:48;;;;;;;;;27.33;27.33;;;;;16.17;70.08;101319.06;6231243;22;45422;-85
2023/05/31 04:41:17;;;;;;;;;26.00;24.00;;;;;16.15;69.79;101317.28;6230699;22;47947;-85
2023/05/31 04:43:43;;;;;;;;;27.00;25.00;;;;;16.16;69.83;101314.63;6205737;22;45613;-85
2023/05/31 04:46:09;;;;;;;;;26.67;23.00;;;;;16.24;69.74;101305.66;6258602;22;45461;-85
2023/05/31 04:48:36;;;;;;;;;28.33;24.00;;;;;16.22;69.49;101303.00;6257711;22;44787;-87
2023/05/31 04:51:12;;;;;;;;;31.33;26.33;;;;;16.31;69.60;101312.81;6229977;22;47027;-86
2023/05/31 04:53:37;;;;;;;;;29.00;24.67;;;;;16.40;69.61;101304.75;6228935;22;45329;-85
2023/05/31 04:56:06;;;;;;;;;28.00;24.67;;;;;16.54;69.59;101316.41;6244113;22;45343;-85
2023/05/31 04:58:32;;;;;;;;;27.33;25.33;;;;;16.65;68.72;101312.81;6258052;22;45413;-86
2023/05/31 05:00:59;;;;;;;;;21.67;21.00;;;;;16.71;68.31;101312.78;6230036;22;47041;-85
2023/05/31 05:03:25;;;;;;;;;25.33;24.00;;;;;16.75;68.32;101302.03;6229638;22;45440;-85
2023/05/31 05:05:51;;;;;;;;;24.67;23.00;;;;;16.82;68.81;101302.91;6229672;22;45348;-86
2023/05/31 05:08:17;;;;;;;;;29.00;23.67;;;;;16.84;67.52;101309.19;6229714;22;45251;-85
2023/05/31 05:10:43;;;;;;;;;24.00;24.00;;;;;16.92;67.53;101317.22;6228966;22;47018;-86
2023/05/31 05:13:46;;;;;;;;;20.67;19.33;;;;;17.12;67.25;101314.47;6229062;22;45312;-85
2023/05/31 05:16:12;;;;;;;;;26.00;23.00;;;;;16.97;67.52;101299.31;6255267;22;45276;-86
2023/05/31 05:18:37;;;;;;;;;28.00;25.67;;;;;17.15;66.69;101306.41;6227692;22;45671;-86
2023/05/31 05:21:03;;;;;;;;;22.33;21.33;;;;;17.24;66.76;101295.59;6228217;22;47038;-86
2023/05/31 05:23:34;;;;;;;;;26.00;22.67;;;;;17.48;67.02;101310.72;6228820;22;45112;-86
2023/05/31 05:26:03;;;;;;;;;27.00;23.67;;;;;17.62;65.88;101309.78;6229414;22;45253;-86
2023/05/31 05:28:28;;;;;;;;;23.33;22.00;;;;;17.62;65.64;101309.78;6229771;22;44878;-85
2023/05/31 05:30:57;;;;;;;;;20.67;18.67;;;;;17.64;65.45;101302.59;6256341;22;45262;-86
2023/05/31 05:33:23;;;;;;;;;22.33;21.33;;;;;17.66;65.25;101298.97;6256814;22;45298;-85
2023/05/31 05:35:48;;;;;;;;;25.00;23.00;;;;;17.79;64.50;101308.78;6230065;22;45340;-86
2023/05/31 05:38:17;;;;;;;;;27.00;25.67;;;;;17.77;64.44;101309.66;6230252;22;45456;-85
2023/05/31 05:40:42;;;;;;;;;28.33;24.67;;;;;17.77;64.50;101310.56;6229121;22;46599;-86
2023/05/31 05:43:08;;;;;;;;;18.33;16.67;;;;;17.96;64.17;101322.13;6231004;22;45436;-86
2023/05/31 05:45:33;;;;;;;;;25.00;22.33;;;;;17.94;63.86;101296.13;6230994;22;45384;-86
2023/05/31 05:47:59;;;;;;;;;27.00;24.00;;;;;18.18;63.58;101317.47;6232471;22;45292;-85
2023/05/31 05:50:29;;;;;;;;;24.00;22.00;;;;;18.16;62.94;101297.75;6261079;22;45581;-86
2023/05/31 05:52:55;;;;;;;;;25.67;23.00;;;;;18.24;62.91;101321.00;6231937;22;45358;-86
2023/05/31 05:55:21;;;;;;;;;22.00;21.00;;;;;18.25;62.84;101314.72;6236768;22;44886;-86
2023/05/31 05:57:46;;;;;;;;;25.67;23.00;;;;;18.29;62.85;101305.72;6235753;22;45877;-85
2023/05/31 06:00:17;;;;;;;;;22.33;22.00;;;;;18.37;62.63;101295.78;6258795;22;46705;-85
2023/05/31 06:02:43;;;;;;;;;26.00;25.33;;;;;18.63;62.21;101314.38;6257012;22;45298;-86
2023/05/31 06:05:09;;;;;;;;;24.67;23.67;;;;;18.80;61.53;101311.53;6260887;22;45339;-86
2023/05/31 06:07:34;;;;;;;;;18.00;16.67;;;;;18.81;61.26;101307.94;6232365;22;45403;-86
2023/05/31 06:10:04;;;;;;;;;23.00;21.67;;;;;18.90;60.94;101301.53;6230254;22;44923;-85
2023/05/31 06:12:30;;;;;;;;;22.33;20.33;;;;;18.96;61.23;101305.03;6259084;22;44894;-85
2023/05/31 06:14:59;;;;;;;;;20.33;20.00;;;;;19.10;60.67;101321.06;6260955;22;45202;-86
2023/05/31 06:17:25;;;;;;;;;22.67;20.00;;;;;19.14;60.14;101300.34;6258519;22;44860;-87
2023/05/31 06:19:50;;;;;;;;;25.00;18.67;;;;;19.27;59.65;101307.41;6258553;22;45822;-85
2023/05/31 06:22:19;;;;;;;;;19.67;18.33;;;;;19.19;59.57;101285.91;6260398;22;45369;-87
2023/05/31 06:24:46;;;;;;;;;19.00;17.67;;;;;19.15;59.00;101269.81;6232077;22;45203;-86
2023/05/31 06:27:14;;;;;;;;;19.67;18.33;;;;;19.38;58.79;101300.03;6256864;22;44896;-86
2023/05/31 06:29:40;;;;;;;;;18.67;17.67;;;;;19.51;58.96;101302.56;6257116;22;45181;-86
2023/05/31 06:32:05;;;;;;;;;19.33;18.00;;;;;19.50;58.42;101290.00;6264637;22;44847;-86
2023/05/31 06:34:34;;;;;;;;;18.00;18.00;;;;;19.69;58.38;101291.53;6231603;22;44641;-85
2023/05/31 06:37:04;;;;;;;;;23.00;19.00;;;;;19.74;58.15;101292.38;6258822;22;45141;-85
2023/05/31 06:39:38;;;;;;;;;18.00;17.67;;;;;19.70;57.04;101263.63;6259624;22;45312;-86
2023/05/31 06:42:05;;;;;;;;;20.00;17.67;;;;;19.81;57.06;101297.66;6233529;22;45335;-86
2023/05/31 06:44:36;;;;;;;;;20.33;20.00;;;;;19.84;57.09;101289.53;6231504;22;45204;-86
2023/05/31 06:47:13;;;;;;;;;23.33;19.67;;;;;19.86;56.96;101302.09;6229264;22;45278;-85
2023/05/31 06:49:59;;;;;;;;;26.00;23.00;;;;;19.85;56.68;101285.91;6250492;22;46802;-86
2023/05/31 06:52:24;;;;;;;;;26.00;22.00;;;;;19.89;56.28;101290.34;6257124;22;44787;-86
2023/05/31 06:54:51;;;;;;;;;16.67;16.00;;;;;20.03;56.55;101288.31;6231914;22;45416;-85
2023/05/31 06:57:16;;;;;;;;;18.67;18.67;;;;;20.25;56.39;101293.38;6231505;22;46026;-84
2023/05/31 06:59:49;;;;;;;;;14.00;13.33;;;;;20.11;55.73;101253.09;6230073;22;46472;-85
2023/05/31 07:02:32;;;;;;;;;17.00;15.67;;;;;20.02;55.43;101256.84;6254741;22;44957;-86
2023/05/31 07:08:21;;;;;;;;;22.67;19.67;;;;;19.80;56.23;101259.00;6264513;22;44830;-87
2023/05/31 07:10:50;;;;;;;;;17.33;16.33;;;;;20.27;56.49;101286.13;6236580;22;48136;-86
2023/05/31 07:14:09;;;;;;;;;;;;;;;;;;;;;
2023/05/31 07:16:36;;;;;;;;;18.00;16.33;;;;;20.07;55.49;101252.25;6051028;23;69619;-75
2023/05/31 07:19:02;;;;;;;;;20.67;18.67;;;;;20.26;55.28;101277.16;6123710;23;45477;-75
2023/05/31 07:21:28;;;;;;;;;15.00;14.33;;;;;20.37;54.63;101271.53;6125466;23;46087;-75
2023/05/31 07:23:55;;;;;;;;;17.00;15.33;;;;;20.71;54.54;101274.53;6125035;23;45546;-75
2023/05/31 07:26:21;;;;;;;;;16.33;13.67;;;;;20.71;54.30;101263.72;6124072;23;45446;-76
2023/05/31 07:28:48;;;;;;;;;21.67;19.33;;;;;20.97;54.37;101273.13;6097768;23;45710;-76
2023/05/31 07:31:19;;;;;;;;;20.33;19.00;;;;;20.97;53.91;101273.13;6122391;23;45443;-77
2023/05/31 07:33:50;;;;;;;;;17.67;14.67;;;;;21.03;53.47;101278.41;6125152;23;45481;-76
2023/05/31 07:36:15;;;;;;;;;17.00;16.33;;;;;20.73;53.46;101269.09;6126464;23;45551;-76
2023/05/31 07:38:44;;;;;;;;;18.67;17.33;;;;;20.95;53.77;101281.25;6126902;23;45797;-75
2023/05/31 07:41:13;;;;;;;;;16.67;16.67;;;;;21.16;53.44;101276.34;6101443;23;46918;-77
2023/05/31 07:43:40;;;;;;;;;12.00;11.33;;;;;21.19;53.18;101270.88;6123967;23;44803;-75
2023/05/31 07:46:09;;;;;;;;;14.33;12.33;;;;;21.32;53.04;101266.06;6135919;22;45833;-76
2023/05/31 07:48:38;;;;;;;;;19.67;16.33;;;;;21.36;52.49;101256.97;6222353;22;45433;-77
2023/05/31 07:51:06;;;;;;;;;19.33;15.00;;;;;21.16;52.26;101270.91;6219856;22;46435;-75
2023/05/31 07:53:32;;;;;;;;;16.67;16.33;;;;;21.03;52.54;101264.00;6220937;22;45507;-76
2023/05/31 07:56:00;;;;;;;;;18.67;17.00;;;;;21.10;52.92;101268.34;6247756;22;45482;-76
2023/05/31 07:58:25;;;;;;;;;17.33;13.33;;;;;21.02;53.22;101264.91;6220949;22;45294;-76
2023/05/31 08:01:47;;;;;;;;;14.67;14.67;;;;;21.26;52.30;101272.50;6220815;22;46608;-77
2023/05/31 08:04:13;;;;;;;;;18.67;15.33;;;;;21.10;52.81;101271.06;6245554;22;45390;-76
2023/05/31 08:06:42;;;;;;;;;17.67;16.67;;;;;21.01;52.39;101264.03;6248966;22;45398;-76
2023/05/31 08:09:17;;;;;;;;;20.67;19.00;;;;;20.98;52.89;101270.38;6250980;22;45347;-77
2023/05/31 08:11:48;;;;;;;;;14.00;13.67;;;;;20.88;52.96;101263.38;6221053;22;47099;-77
2023/05/31 08:14:15;;;;;;;;;16.00;16.00;;;;;20.96;53.19;101260.53;6220839;22;45402;-77
2023/05/31 08:16:43;;;;;;;;;16.67;16.67;;;;;21.10;53.21;101262.94;6246120;22;45369;-76
2023/05/31 08:19:12;;;;;;;;;15.00;14.67;;;;;21.11;52.61;101257.50;6248393;22;45333;-76
2023/05/31 08:21:38;;;;;;;;;13.00;13.00;;;;;21.12;52.93;101251.16;6248147;22;45520;-78
2023/05/31 08:24:07;;;;;;;;;13.00;13.00;;;;;21.19;52.83;101257.34;6220403;22;45384;-76
2023/05/31 08:26:37;;;;;;;;;14.00;12.00;;;;;21.28;52.44;101250.84;6219158;22;45344;-77
2023/05/31 08:29:02;;;;;;;;;16.33;14.33;;;;;21.32;52.66;101258.84;6249884;22;45412;-76
2023/05/31 08:31:31;;;;;;;;;16.00;15.67;;;;;21.46;52.22;101254.97;6221754;22;46581;-77
2023/05/31 08:33:58;;;;;;;;;17.00;14.67;;;;;21.41;51.68;101248.72;6221502;22;45352;-76
2023/05/31 08:36:27;;;;;;;;;15.33;14.00;;;;;21.51;52.52;101253.03;6221892;22;45382;-75
2023/05/31 08:39:42;;;;;;;;;10.00;10.00;;;;;21.66;51.82;101263.50;6249256;22;45421;-74
2023/05/31 08:42:17;;;;;;;;;14.33;13.33;;;;;21.59;51.74;101248.34;6222584;22;46518;-76
2023/05/31 08:44:46;;;;;;;;;13.67;12.00;;;;;21.50;52.24;101246.75;6219885;22;45503;-75
2023/05/31 08:47:21;;;;;;;;;13.33;13.33;;;;;21.72;51.75;101236.28;6248358;22;45868;-76
2023/05/31 08:49:48;;;;;;;;;14.33;14.33;;;;;21.71;51.72;101236.31;6247479;22;45263;-76
2023/05/31 08:52:28;;;;;;;;;12.33;12.33;;;;;21.85;51.68;101230.56;6219615;22;46253;-75
2023/05/31 08:54:54;;;;;;;;;12.33;9.67;;;;;21.84;51.37;101239.66;6247897;22;44792;-76
2023/05/31 08:57:23;;;;;;;;;12.00;11.00;;;;;21.93;51.44;101233.97;6278135;22;45386;-75
2023/05/31 08:59:50;;;;;;;;;12.67;11.67;;;;;21.87;51.19;101226.88;6278194;22;45395;-75
2023/05/31 09:02:17;;;;;;;;;15.33;14.00;;;;;21.98;51.62;101221.22;6280090;22;45625;-76
2023/05/31 09:04:45;;;;;;;;;14.00;14.00;;;;;22.11;51.21;101229.91;6250309;22;45319;-74
2023/05/31 09:07:16;;;;;;;;;18.00;12.67;;;;;22.13;50.80;101215.38;6278876;22;45482;-76
2023/05/31 09:09:41;;;;;;;;;16.00;15.33;;;;;22.15;50.29;101232.50;6251870;22;45984;-76
2023/05/31 09:12:16;;;;;;;;;10.00;9.00;;;;;22.11;51.00;101214.53;6250744;22;47874;-76
2023/05/31 09:14:42;;;;;;;;;14.67;14.00;;;;;22.03;51.32;101224.69;6278657;22;45772;-76
2023/05/31 09:17:19;;;;;;;;;15.33;14.67;;;;;22.13;51.12;101220.81;6276580;22;45314;-77
2023/05/31 09:19:53;;;;;;;;;11.33;9.33;;;;;22.15;50.88;101218.94;6277998;22;45418;-77
2023/05/31 09:22:21;;;;;;;;;14.67;13.67;;;;;22.08;51.02;101209.22;6252953;22;48605;-77
2023/05/31 09:24:58;;;;;;;;;12.67;12.00;;;;;22.11;51.30;101205.53;6279704;22;45342;-76
2023/05/31 09:27:26;;;;;;;;;13.67;13.67;;;;;22.11;50.71;101200.13;6251523;22;45442;-77
2023/05/31 09:29:53;;;;;;;;;13.33;13.33;;;;;22.14;50.93;101192.81;6254049;22;45505;-77
2023/05/31 09:32:22;;;;;;;;;14.33;14.33;;;;;22.15;50.84;101189.16;6280662;22;46164;-79
2023/05/31 09:35:10;;;;;;;;;14.33;13.33;;;;;22.27;50.20;101195.22;6253863;22;45314;-76
2023/05/31 09:37:46;;;;;;;;;11.67;11.67;;;;;22.32;50.61;101196.00;6249727;22;45389;-75
2023/05/31 09:40:22;;;;;;;;;14.00;13.00;;;;;22.34;50.50;101186.00;6277749;22;45445;-75
2023/05/31 09:42:58;;;;;;;;;12.33;12.33;;;;;22.33;49.79;101192.34;6249711;22;45607;-75
2023/05/31 09:45:28;;;;;;;;;14.00;12.33;;;;;22.33;50.26;101195.94;6278770;22;45445;-77
2023/05/31 09:47:57;;;;;;;;;9.33;7.00;;;;;22.39;49.85;101200.28;6278203;22;45358;-73
2023/05/31 09:50:26;;;;;;;;;13.67;11.67;;;;;22.39;49.58;101177.72;6250388;22;45489;-75
2023/05/31 09:52:58;;;;;;;;;15.00;13.67;;;;;22.52;49.74;101185.47;6277251;22;47690;-72
2023/05/31 09:55:40;;;;;;;;;16.00;15.67;;;;;22.71;49.45;101179.50;6272481;22;45358;-75
2023/05/31 09:58:06;;;;;;;;;11.00;10.67;;;;;22.77;49.77;101179.34;6220180;22;45264;-74
2023/05/31 10:00:35;;;;;;;;;14.00;12.33;;;;;23.00;49.06;101180.47;6219386;22;45514;-73
2023/05/31 10:03:03;;;;;;;;;9.00;9.00;;;;;22.95;48.28;101178.78;6219782;22;47121;-74
2023/05/31 10:05:28;;;;;;;;;12.33;11.67;;;;;22.95;48.82;101176.06;6219412;22;45292;-72
2023/05/31 10:07:54;;;;;;;;;14.00;12.00;;;;;23.02;47.75;101181.34;6249101;22;45377;-73
2023/05/31 10:10:20;;;;;;;;;12.00;10.00;;;;;22.95;48.30;101173.34;6251812;22;45141;-74
2023/05/31 10:12:58;;;;;;;;;11.00;11.00;;;;;22.97;48.34;101170.59;6251401;22;45304;-72
2023/05/31 10:15:35;;;;;;;;;12.00;10.00;;;;;23.06;48.23;101170.34;6222276;22;45381;-73
2023/05/31 10:18:05;;;;;;;;;10.00;9.33;;;;;23.16;48.29;101177.25;6222021;22;45500;-73
2023/05/31 10:21:08;;;;;;;;;14.00;12.33;;;;;23.21;47.63;101163.56;6220810;22;45333;-72
2023/05/31 10:23:46;;;;;;;;;11.00;10.00;;;;;23.30;47.67;101157.81;6121732;23;48084;-74
2023/05/31 10:26:17;;;;;;;;;12.67;12.67;;;;;23.34;47.47;101164.03;6122832;23;45975;-72
2023/05/31 10:28:58;;;;;;;;;9.67;9.67;;;;;23.45;46.86;101147.41;6122922;23;45461;-72
2023/05/31 10:31:32;;;;;;;;;14.33;14.00;;;;;23.56;46.94;101154.25;6122916;23;45512;-73
2023/05/31 10:34:18;;;;;;;;;10.33;10.33;;;;;23.59;46.69;101138.78;6123756;23;45414;-73
2023/05/31 10:36:45;;;;;;;;;13.33;12.33;;;;;23.59;46.61;101145.09;6122930;23;45472;-72
2023/05/31 10:39:22;;;;;;;;;13.33;10.67;;;;;23.76;46.33;101140.00;6122198;23;45480;-73
2023/05/31 10:41:56;;;;;;;;;11.33;10.33;;;;;23.78;44.59;101142.69;6136716;23;45288;-73
2023/05/31 10:48:06;;;;;;;;;9.00;9.00;;;;;23.96;44.59;101139.34;6125460;23;45388;-73
2023/05/31 10:50:59;;;;;;;;;7.33;7.00;;;;;24.02;44.93;101134.66;6107047;23;45435;-72
2023/05/31 10:53:33;;;;;;;;;5.33;5.00;;;;;24.15;44.59;101136.84;6099272;23;45471;-73
2023/05/31 10:56:10;;;;;;;;;10.33;10.33;;;;;24.23;43.75;101128.41;6134051;23;46189;-76
2023/05/31 10:58:55;;;;;;;;;11.67;11.67;;;;;24.28;44.08;101121.00;6155813;22;45568;-74
2023/05/31 11:01:28;;;;;;;;;9.67;9.33;;;;;24.25;44.24;101139.22;6248012;22;45462;-73
2023/05/31 11:03:57;;;;;;;;;11.67;10.33;;;;;24.21;43.67;101135.72;6248620;22;45364;-73
2023/05/31 11:06:38;;;;;;;;;8.00;8.00;;;;;24.35;43.28;101127.06;6220473;22;46735;-74
2023/05/31 11:09:11;;;;;;;;;13.00;12.00;;;;;24.34;43.37;101128.03;6245529;22;45382;-74
2023/05/31 11:11:40;;;;;;;;;11.00;9.67;;;;;24.28;43.42;101123.72;6254472;22;45328;-73
2023/05/31 11:14:28;;;;;;;;;9.00;9.00;;;;;24.26;43.38;101128.31;6221224;22;45450;-73
2023/05/31 11:17:02;;;;;;;;;7.67;7.00;;;;;24.15;43.72;101125.97;6256085;22;45290;-72
2023/05/31 11:19:31;;;;;;;;;11.33;10.33;;;;;24.26;44.04;101116.53;6222461;22;45366;-75
2023/05/31 11:22:13;;;;;;;;;12.00;10.33;;;;;24.41;43.74;101105.09;6252021;22;45469;-72
2023/05/31 11:24:55;;;;;;;;;11.00;10.67;;;;;24.53;44.03;101110.09;6253845;22;45372;-73
2023/05/31 11:27:40;;;;;;;;;11.00;10.00;;;;;24.65;42.94;101107.88;6256019;22;46006;-75
2023/05/31 11:30:34;;;;;;;;;10.00;10.00;;;;;24.72;43.08;101112.09;6246406;22;45398;-73
2023/05/31 11:33:00;;;;;;;;;10.00;9.33;;;;;24.71;43.48;101123.94;6246329;22;45726;-73